Terminal Aerodrome Forecast
Issued by NWS

Home | Current Version | Previous Version | Text Only | Print | Product List | Glossary On
Versions: 1 2 3 4 5 6 7 8 9 10 11 12 13 14 15 16
000
FTUS44 KLIX 271233 AAA
TAFHUM
TAF AMD
KHUM 271233Z 2713/2812 08008KT P6SM VCSH SCT035 BKN090
      TEMPO 2715/2719 3SM -TSRA BKN035CB
     FM280600 08005KT P6SM BKN250=

USA.gov is the U.S. government's official web portal to all federal, state and local government web resources and services.